sensor_id;sensor_type;location;lat;lon;timestamp;temperature;humidity
35445;DHT22;21562;49.476;6.086;2024-02-23T00:01:43;6.00;99.90
35445;DHT22;21562;49.476;6.086;2024-02-23T00:04:09;6.00;99.90
35445;DHT22;21562;49.476;6.086;2024-02-23T00:06:35;6.00;99.90
35445;DHT22;21562;49.476;6.086;2024-02-23T00:09:01;6.00;99.90
35445;DHT22;21562;49.476;6.086;2024-02-23T00:11:27;6.00;99.90
35445;DHT22;21562;49.476;6.086;2024-02-23T00:13:56;5.90;99.90
35445;DHT22;21562;49.476;6.086;2024-02-23T00:16:21;5.70;99.90
35445;DHT22;21562;49.476;6.086;2024-02-23T00:18:47;5.70;99.90
35445;DHT22;21562;49.476;6.086;2024-02-23T00:21:13;5.80;99.90
35445;DHT22;21562;49.476;6.086;2024-02-23T00:23:38;5.80;99.90
35445;DHT22;21562;49.476;6.086;2024-02-23T00:26:04;5.90;99.90
35445;DHT22;21562;49.476;6.086;2024-02-23T00:28:29;6.00;99.90
35445;DHT22;21562;49.476;6.086;2024-02-23T00:30:55;6.00;99.90
35445;DHT22;21562;49.476;6.086;2024-02-23T00:33:21;6.00;99.90
35445;DHT22;21562;49.476;6.086;2024-02-23T00:35:46;6.10;99.90
35445;DHT22;21562;49.476;6.086;2024-02-23T00:38:12;6.10;99.90
35445;DHT22;21562;49.476;6.086;2024-02-23T00:40:38;6.00;99.90
35445;DHT22;21562;49.476;6.086;2024-02-23T00:43:04;6.00;99.90
35445;DHT22;21562;49.476;6.086;2024-02-23T00:45:30;6.00;99.90
35445;DHT22;21562;49.476;6.086;2024-02-23T00:47:55;6.00;99.90
35445;DHT22;21562;49.476;6.086;2024-02-23T00:50:23;6.00;99.90
35445;DHT22;21562;49.476;6.086;2024-02-23T00:52:51;6.00;99.90
35445;DHT22;21562;49.476;6.086;2024-02-23T00:55:18;6.00;99.90
35445;DHT22;21562;49.476;6.086;2024-02-23T00:57:44;5.90;99.90
35445;DHT22;21562;49.476;6.086;2024-02-23T01:00:11;5.80;99.90
35445;DHT22;21562;49.476;6.086;2024-02-23T01:02:37;5.80;99.90
35445;DHT22;21562;49.476;6.086;2024-02-23T01:05:04;5.80;99.90
35445;DHT22;21562;49.476;6.086;2024-02-23T01:07:30;5.70;99.90
35445;DHT22;21562;49.476;6.086;2024-02-23T01:09:55;5.60;99.90
35445;DHT22;21562;49.476;6.086;2024-02-23T01:12:22;5.60;99.90
35445;DHT22;21562;49.476;6.086;2024-02-23T01:14:47;5.60;99.90
35445;DHT22;21562;49.476;6.086;2024-02-23T01:17:14;5.60;99.90
35445;DHT22;21562;49.476;6.086;2024-02-23T01:19:41;5.60;99.90
35445;DHT22;21562;49.476;6.086;2024-02-23T01:22:08;5.50;99.90
35445;DHT22;21562;49.476;6.086;2024-02-23T01:24:33;5.60;99.90
35445;DHT22;21562;49.476;6.086;2024-02-23T01:26:59;5.70;99.90
35445;DHT22;21562;49.476;6.086;2024-02-23T01:29:26;5.60;99.90
35445;DHT22;21562;49.476;6.086;2024-02-23T01:31:52;5.50;99.90
35445;DHT22;21562;49.476;6.086;2024-02-23T01:34:22;5.50;99.90
35445;DHT22;21562;49.476;6.086;2024-02-23T01:36:49;5.50;99.90
35445;DHT22;21562;49.476;6.086;2024-02-23T01:39:14;5.60;99.90
35445;DHT22;21562;49.476;6.086;2024-02-23T01:41:40;5.50;99.90
35445;DHT22;21562;49.476;6.086;2024-02-23T01:44:06;5.40;99.90
35445;DHT22;21562;49.476;6.086;2024-02-23T01:46:32;5.50;99.90
35445;DHT22;21562;49.476;6.086;2024-02-23T01:48:58;5.50;99.90
35445;DHT22;21562;49.476;6.086;2024-02-23T01:51:24;5.50;99.90
35445;DHT22;21562;49.476;6.086;2024-02-23T01:53:51;5.60;99.90
35445;DHT22;21562;49.476;6.086;2024-02-23T01:56:17;5.50;99.90
35445;DHT22;21562;49.476;6.086;2024-02-23T01:58:43;5.50;99.90
35445;DHT22;21562;49.476;6.086;2024-02-23T02:01:12;5.50;99.90
35445;DHT22;21562;49.476;6.086;2024-02-23T02:03:41;5.50;99.90
35445;DHT22;21562;49.476;6.086;2024-02-23T02:06:06;5.60;99.90
35445;DHT22;21562;49.476;6.086;2024-02-23T02:08:33;5.60;99.90
35445;DHT22;21562;49.476;6.086;2024-02-23T02:11:00;5.70;99.90
35445;DHT22;21562;49.476;6.086;2024-02-23T02:13:27;5.60;99.90
35445;DHT22;21562;49.476;6.086;2024-02-23T02:15:53;5.60;99.90
35445;DHT22;21562;49.476;6.086;2024-02-23T02:18:18;5.70;99.90
35445;DHT22;21562;49.476;6.086;2024-02-23T02:20:51;5.60;99.90
35445;DHT22;21562;49.476;6.086;2024-02-23T02:23:20;5.60;99.90
35445;DHT22;21562;49.476;6.086;2024-02-23T02:25:52;5.70;99.90
35445;DHT22;21562;49.476;6.086;2024-02-23T02:28:17;5.80;99.90
35445;DHT22;21562;49.476;6.086;2024-02-23T02:30:43;5.80;99.90
35445;DHT22;21562;49.476;6.086;2024-02-23T02:33:09;5.80;99.90
35445;DHT22;21562;49.476;6.086;2024-02-23T02:35:34;5.70;99.90
35445;DHT22;21562;49.476;6.086;2024-02-23T02:38:00;5.70;99.90
35445;DHT22;21562;49.476;6.086;2024-02-23T02:40:25;5.60;99.90
35445;DHT22;21562;49.476;6.086;2024-02-23T02:42:51;5.70;99.90
35445;DHT22;21562;49.476;6.086;2024-02-23T02:45:17;5.70;99.90
35445;DHT22;21562;49.476;6.086;2024-02-23T02:47:43;5.60;99.90
35445;DHT22;21562;49.476;6.086;2024-02-23T02:50:09;5.80;99.90
35445;DHT22;21562;49.476;6.086;2024-02-23T02:52:34;5.70;99.90
35445;DHT22;21562;49.476;6.086;2024-02-23T02:55:00;5.70;99.90
35445;DHT22;21562;49.476;6.086;2024-02-23T02:57:26;5.80;99.90
35445;DHT22;21562;49.476;6.086;2024-02-23T02:59:52;5.70;99.90
35445;DHT22;21562;49.476;6.086;2024-02-23T03:02:17;5.60;99.90
35445;DHT22;21562;49.476;6.086;2024-02-23T03:04:50;5.70;99.90
35445;DHT22;21562;49.476;6.086;2024-02-23T03:07:16;5.70;99.90
35445;DHT22;21562;49.476;6.086;2024-02-23T03:09:42;5.70;99.90
35445;DHT22;21562;49.476;6.086;2024-02-23T03:12:08;5.80;99.90
35445;DHT22;21562;49.476;6.086;2024-02-23T03:14:34;5.90;99.90
35445;DHT22;21562;49.476;6.086;2024-02-23T03:17:00;5.90;99.90
35445;DHT22;21562;49.476;6.086;2024-02-23T03:19:25;5.80;99.90
35445;DHT22;21562;49.476;6.086;2024-02-23T03:21:52;5.50;99.90
35445;DHT22;21562;49.476;6.086;2024-02-23T03:24:18;5.50;99.90
35445;DHT22;21562;49.476;6.086;2024-02-23T03:26:43;5.50;99.90
35445;DHT22;21562;49.476;6.086;2024-02-23T03:29:10;5.60;99.90
35445;DHT22;21562;49.476;6.086;2024-02-23T03:31:35;5.60;99.90
35445;DHT22;21562;49.476;6.086;2024-02-23T03:34:02;5.70;99.90
35445;DHT22;21562;49.476;6.086;2024-02-23T03:36:28;5.60;99.90
35445;DHT22;21562;49.476;6.086;2024-02-23T03:38:54;5.60;99.90
35445;DHT22;21562;49.476;6.086;2024-02-23T03:41:19;5.60;99.90
35445;DHT22;21562;49.476;6.086;2024-02-23T03:43:45;5.50;99.90
35445;DHT22;21562;49.476;6.086;2024-02-23T03:46:11;5.40;99.90
35445;DHT22;21562;49.476;6.086;2024-02-23T03:48:37;5.50;99.90
35445;DHT22;21562;49.476;6.086;2024-02-23T03:51:04;5.50;99.90
35445;DHT22;21562;49.476;6.086;2024-02-23T03:53:30;5.50;99.90
35445;DHT22;21562;49.476;6.086;2024-02-23T03:55:57;5.70;99.90
35445;DHT22;21562;49.476;6.086;2024-02-23T03:58:22;5.60;99.90
35445;DHT22;21562;49.476;6.086;2024-02-23T04:00:48;5.60;99.90
35445;DHT22;21562;49.476;6.086;2024-02-23T04:03:14;5.50;99.90
35445;DHT22;21562;49.476;6.086;2024-02-23T04:05:40;5.50;99.90
35445;DHT22;21562;49.476;6.086;2024-02-23T04:08:05;5.60;99.90
35445;DHT22;21562;49.476;6.086;2024-02-23T04:10:31;5.70;99.90
35445;DHT22;21562;49.476;6.086;2024-02-23T04:12:58;5.90;99.90
35445;DHT22;21562;49.476;6.086;2024-02-23T04:15:23;6.00;99.90
35445;DHT22;21562;49.476;6.086;2024-02-23T04:17:49;5.80;99.90
35445;DHT22;21562;49.476;6.086;2024-02-23T04:20:15;5.50;99.90
35445;DHT22;21562;49.476;6.086;2024-02-23T04:22:41;5.40;99.90
35445;DHT22;21562;49.476;6.086;2024-02-23T04:25:06;5.40;99.90
35445;DHT22;21562;49.476;6.086;2024-02-23T04:27:32;5.50;99.90
35445;DHT22;21562;49.476;6.086;2024-02-23T04:29:58;5.30;99.90
35445;DHT22;21562;49.476;6.086;2024-02-23T04:32:24;5.50;99.90
35445;DHT22;21562;49.476;6.086;2024-02-23T04:34:49;5.80;99.90
35445;DHT22;21562;49.476;6.086;2024-02-23T04:37:15;5.70;99.90
35445;DHT22;21562;49.476;6.086;2024-02-23T04:39:43;5.90;99.90
35445;DHT22;21562;49.476;6.086;2024-02-23T04:42:09;5.80;99.90
35445;DHT22;21562;49.476;6.086;2024-02-23T04:44:35;5.60;99.90
35445;DHT22;21562;49.476;6.086;2024-02-23T04:47:02;5.40;99.90
35445;DHT22;21562;49.476;6.086;2024-02-23T04:49:28;5.50;99.90
35445;DHT22;21562;49.476;6.086;2024-02-23T04:51:54;5.50;99.90
35445;DHT22;21562;49.476;6.086;2024-02-23T04:54:20;5.50;99.90
35445;DHT22;21562;49.476;6.086;2024-02-23T04:56:47;5.60;99.90
35445;DHT22;21562;49.476;6.086;2024-02-23T04:59:13;5.60;99.90
35445;DHT22;21562;49.476;6.086;2024-02-23T05:01:39;5.50;99.90
35445;DHT22;21562;49.476;6.086;2024-02-23T05:04:05;5.30;99.90
35445;DHT22;21562;49.476;6.086;2024-02-23T05:06:30;5.30;99.90
35445;DHT22;21562;49.476;6.086;2024-02-23T05:08:56;5.40;99.90
35445;DHT22;21562;49.476;6.086;2024-02-23T05:11:22;5.40;99.90
35445;DHT22;21562;49.476;6.086;2024-02-23T05:13:48;5.60;99.90
35445;DHT22;21562;49.476;6.086;2024-02-23T05:16:14;5.60;99.90
35445;DHT22;21562;49.476;6.086;2024-02-23T05:18:40;5.40;99.90
35445;DHT22;21562;49.476;6.086;2024-02-23T05:21:07;5.40;99.90
35445;DHT22;21562;49.476;6.086;2024-02-23T05:23:33;5.40;99.90
35445;DHT22;21562;49.476;6.086;2024-02-23T05:25:58;5.50;99.90
35445;DHT22;21562;49.476;6.086;2024-02-23T05:28:24;5.60;99.90
35445;DHT22;21562;49.476;6.086;2024-02-23T05:30:51;5.60;99.90
35445;DHT22;21562;49.476;6.086;2024-02-23T05:33:17;5.50;99.90
35445;DHT22;21562;49.476;6.086;2024-02-23T05:35:46;5.30;99.90
35445;DHT22;21562;49.476;6.086;2024-02-23T05:38:14;5.30;99.90
35445;DHT22;21562;49.476;6.086;2024-02-23T05:40:40;5.40;99.90
35445;DHT22;21562;49.476;6.086;2024-02-23T05:43:06;5.50;99.90
35445;DHT22;21562;49.476;6.086;2024-02-23T05:45:31;5.40;99.90
35445;DHT22;21562;49.476;6.086;2024-02-23T05:47:57;5.30;99.90
35445;DHT22;21562;49.476;6.086;2024-02-23T05:50:23;5.30;99.90
35445;DHT22;21562;49.476;6.086;2024-02-23T05:52:49;5.50;99.90
35445;DHT22;21562;49.476;6.086;2024-02-23T05:55:14;5.50;99.90
35445;DHT22;21562;49.476;6.086;2024-02-23T05:57:40;5.40;99.90
35445;DHT22;21562;49.476;6.086;2024-02-23T06:00:07;5.60;99.90
35445;DHT22;21562;49.476;6.086;2024-02-23T06:02:35;5.70;99.90
35445;DHT22;21562;49.476;6.086;2024-02-23T06:05:01;5.60;99.90
35445;DHT22;21562;49.476;6.086;2024-02-23T06:07:27;5.50;99.90
35445;DHT22;21562;49.476;6.086;2024-02-23T06:09:57;5.40;99.90
35445;DHT22;21562;49.476;6.086;2024-02-23T06:12:23;5.50;99.90
35445;DHT22;21562;49.476;6.086;2024-02-23T06:14:51;5.70;99.90
35445;DHT22;21562;49.476;6.086;2024-02-23T06:17:17;5.60;99.90
35445;DHT22;21562;49.476;6.086;2024-02-23T06:19:43;5.50;99.90
35445;DHT22;21562;49.476;6.086;2024-02-23T06:22:09;5.50;99.90
35445;DHT22;21562;49.476;6.086;2024-02-23T06:24:36;5.50;99.90
35445;DHT22;21562;49.476;6.086;2024-02-23T06:27:02;5.50;99.90
35445;DHT22;21562;49.476;6.086;2024-02-23T06:29:29;5.60;99.90
35445;DHT22;21562;49.476;6.086;2024-02-23T06:31:55;5.60;99.90
35445;DHT22;21562;49.476;6.086;2024-02-23T06:34:21;5.60;99.90
35445;DHT22;21562;49.476;6.086;2024-02-23T06:36:47;5.40;99.90
35445;DHT22;21562;49.476;6.086;2024-02-23T06:39:13;5.30;99.90
35445;DHT22;21562;49.476;6.086;2024-02-23T06:41:39;5.40;99.90
35445;DHT22;21562;49.476;6.086;2024-02-23T06:44:05;5.40;99.90
35445;DHT22;21562;49.476;6.086;2024-02-23T06:46:30;5.60;99.90
35445;DHT22;21562;49.476;6.086;2024-02-23T06:48:56;5.80;99.90
35445;DHT22;21562;49.476;6.086;2024-02-23T06:51:22;5.70;99.90
35445;DHT22;21562;49.476;6.086;2024-02-23T06:53:48;5.50;99.90
35445;DHT22;21562;49.476;6.086;2024-02-23T06:56:13;5.50;99.90
35445;DHT22;21562;49.476;6.086;2024-02-23T06:58:40;5.60;99.90
35445;DHT22;21562;49.476;6.086;2024-02-23T07:01:05;5.50;99.90
35445;DHT22;21562;49.476;6.086;2024-02-23T07:03:38;5.50;99.90
35445;DHT22;21562;49.476;6.086;2024-02-23T07:06:09;5.70;99.90
35445;DHT22;21562;49.476;6.086;2024-02-23T07:08:36;5.80;99.90
35445;DHT22;21562;49.476;6.086;2024-02-23T07:11:02;6.00;99.90
35445;DHT22;21562;49.476;6.086;2024-02-23T07:13:28;5.90;99.90
35445;DHT22;21562;49.476;6.086;2024-02-23T07:15:54;5.80;99.90
35445;DHT22;21562;49.476;6.086;2024-02-23T07:18:21;5.60;99.90
35445;DHT22;21562;49.476;6.086;2024-02-23T07:20:47;5.60;99.90
35445;DHT22;21562;49.476;6.086;2024-02-23T07:23:15;5.50;99.90
35445;DHT22;21562;49.476;6.086;2024-02-23T07:25:42;5.70;99.90
35445;DHT22;21562;49.476;6.086;2024-02-23T07:28:08;6.00;99.90
35445;DHT22;21562;49.476;6.086;2024-02-23T07:30:34;5.80;99.90
35445;DHT22;21562;49.476;6.086;2024-02-23T07:33:02;5.50;99.90
35445;DHT22;21562;49.476;6.086;2024-02-23T07:35:28;5.50;99.90
35445;DHT22;21562;49.476;6.086;2024-02-23T07:37:55;5.70;99.90
35445;DHT22;21562;49.476;6.086;2024-02-23T07:40:21;5.90;99.90
35445;DHT22;21562;49.476;6.086;2024-02-23T07:42:46;6.20;99.90
35445;DHT22;21562;49.476;6.086;2024-02-23T07:45:12;6.40;99.90
35445;DHT22;21562;49.476;6.086;2024-02-23T07:47:38;6.50;99.90
35445;DHT22;21562;49.476;6.086;2024-02-23T07:50:04;6.50;99.90
35445;DHT22;21562;49.476;6.086;2024-02-23T07:52:30;6.70;99.90
35445;DHT22;21562;49.476;6.086;2024-02-23T07:54:55;6.70;99.90
35445;DHT22;21562;49.476;6.086;2024-02-23T07:57:21;6.50;99.90
35445;DHT22;21562;49.476;6.086;2024-02-23T07:59:47;6.60;99.90
35445;DHT22;21562;49.476;6.086;2024-02-23T08:02:14;6.60;99.90
35445;DHT22;21562;49.476;6.086;2024-02-23T08:04:40;6.50;99.90
35445;DHT22;21562;49.476;6.086;2024-02-23T08:07:06;6.40;99.90
35445;DHT22;21562;49.476;6.086;2024-02-23T08:09:31;6.40;99.90
35445;DHT22;21562;49.476;6.086;2024-02-23T08:11:58;6.30;99.90
35445;DHT22;21562;49.476;6.086;2024-02-23T08:14:23;6.20;99.90
35445;DHT22;21562;49.476;6.086;2024-02-23T08:16:49;6.20;99.90
35445;DHT22;21562;49.476;6.086;2024-02-23T08:19:15;6.00;99.90
35445;DHT22;21562;49.476;6.086;2024-02-23T08:21:41;6.30;99.90
35445;DHT22;21562;49.476;6.086;2024-02-23T08:24:07;6.50;99.90
35445;DHT22;21562;49.476;6.086;2024-02-23T08:26:33;6.70;99.90
35445;DHT22;21562;49.476;6.086;2024-02-23T08:28:59;6.80;99.90
35445;DHT22;21562;49.476;6.086;2024-02-23T08:31:25;6.80;99.90
35445;DHT22;21562;49.476;6.086;2024-02-23T08:33:50;6.60;99.90
35445;DHT22;21562;49.476;6.086;2024-02-23T08:36:16;6.60;99.90
35445;DHT22;21562;49.476;6.086;2024-02-23T08:38:42;6.50;99.90
35445;DHT22;21562;49.476;6.086;2024-02-23T08:41:08;6.20;99.90
35445;DHT22;21562;49.476;6.086;2024-02-23T08:43:34;6.50;99.90
35445;DHT22;21562;49.476;6.086;2024-02-23T08:46:00;6.80;99.90
35445;DHT22;21562;49.476;6.086;2024-02-23T08:48:25;6.60;99.90
35445;DHT22;21562;49.476;6.086;2024-02-23T08:50:51;6.60;99.90
35445;DHT22;21562;49.476;6.086;2024-02-23T08:53:17;6.60;99.90
35445;DHT22;21562;49.476;6.086;2024-02-23T08:55:43;6.90;99.90
35445;DHT22;21562;49.476;6.086;2024-02-23T08:58:09;7.10;99.90
35445;DHT22;21562;49.476;6.086;2024-02-23T09:00:35;7.20;99.90
35445;DHT22;21562;49.476;6.086;2024-02-23T09:03:02;7.20;99.90
35445;DHT22;21562;49.476;6.086;2024-02-23T09:05:28;7.30;99.90
35445;DHT22;21562;49.476;6.086;2024-02-23T09:07:57;7.30;99.90
35445;DHT22;21562;49.476;6.086;2024-02-23T09:10:23;7.40;99.90
35445;DHT22;21562;49.476;6.086;2024-02-23T09:12:48;7.40;99.90
35445;DHT22;21562;49.476;6.086;2024-02-23T09:15:14;7.60;99.90
35445;DHT22;21562;49.476;6.086;2024-02-23T09:17:40;7.60;99.90
35445;DHT22;21562;49.476;6.086;2024-02-23T09:20:07;7.40;99.90
35445;DHT22;21562;49.476;6.086;2024-02-23T09:22:33;7.40;99.90
35445;DHT22;21562;49.476;6.086;2024-02-23T09:24:59;7.40;99.90
35445;DHT22;21562;49.476;6.086;2024-02-23T09:27:25;7.30;99.90
35445;DHT22;21562;49.476;6.086;2024-02-23T09:29:50;7.10;99.90
35445;DHT22;21562;49.476;6.086;2024-02-23T09:32:17;6.90;99.90
35445;DHT22;21562;49.476;6.086;2024-02-23T09:34:42;6.80;99.90
35445;DHT22;21562;49.476;6.086;2024-02-23T09:37:08;6.90;99.90
35445;DHT22;21562;49.476;6.086;2024-02-23T09:39:35;6.90;99.90
35445;DHT22;21562;49.476;6.086;2024-02-23T09:42:01;7.00;99.90
35445;DHT22;21562;49.476;6.086;2024-02-23T09:44:32;7.30;92.90
35445;DHT22;21562;49.476;6.086;2024-02-23T09:47:02;7.00;99.90
35445;DHT22;21562;49.476;6.086;2024-02-23T09:49:38;7.20;99.90
35445;DHT22;21562;49.476;6.086;2024-02-23T09:52:06;7.30;97.80
35445;DHT22;21562;49.476;6.086;2024-02-23T09:54:32;7.20;99.90
35445;DHT22;21562;49.476;6.086;2024-02-23T09:56:58;7.30;99.90
35445;DHT22;21562;49.476;6.086;2024-02-23T09:59:24;7.30;97.00
35445;DHT22;21562;49.476;6.086;2024-02-23T10:01:53;7.20;99.90
35445;DHT22;21562;49.476;6.086;2024-02-23T10:04:19;7.10;99.90
35445;DHT22;21562;49.476;6.086;2024-02-23T10:06:46;7.30;99.90
35445;DHT22;21562;49.476;6.086;2024-02-23T10:09:11;7.60;83.00
35445;DHT22;21562;49.476;6.086;2024-02-23T10:11:38;7.60;75.00
35445;DHT22;21562;49.476;6.086;2024-02-23T10:14:04;7.80;84.50
35445;DHT22;21562;49.476;6.086;2024-02-23T10:16:30;7.60;82.80
35445;DHT22;21562;49.476;6.086;2024-02-23T10:18:57;7.60;89.50
35445;DHT22;21562;49.476;6.086;2024-02-23T10:21:23;7.70;97.50
35445;DHT22;21562;49.476;6.086;2024-02-23T10:23:55;7.40;99.90
35445;DHT22;21562;49.476;6.086;2024-02-23T10:26:20;7.70;99.90
35445;DHT22;21562;49.476;6.086;2024-02-23T10:28:48;7.90;77.30
35445;DHT22;21562;49.476;6.086;2024-02-23T10:31:13;7.70;99.90
35445;DHT22;21562;49.476;6.086;2024-02-23T10:33:40;7.60;99.90
35445;DHT22;21562;49.476;6.086;2024-02-23T10:36:07;7.60;99.90
35445;DHT22;21562;49.476;6.086;2024-02-23T10:38:38;7.50;98.00
35445;DHT22;21562;49.476;6.086;2024-02-23T10:41:06;7.70;99.90
35445;DHT22;21562;49.476;6.086;2024-02-23T10:43:44;8.00;99.90
35445;DHT22;21562;49.476;6.086;2024-02-23T10:46:12;8.20;45.90
35445;DHT22;21562;49.476;6.086;2024-02-23T10:48:42;8.20;27.70
35445;DHT22;21562;49.476;6.086;2024-02-23T10:51:10;8.30;27.60
35445;DHT22;21562;49.476;6.086;2024-02-23T10:53:39;8.10;16.40
35445;DHT22;21562;49.476;6.086;2024-02-23T10:56:06;7.80;36.80
35445;DHT22;21562;49.476;6.086;2024-02-23T10:58:33;7.70;41.40
35445;DHT22;21562;49.476;6.086;2024-02-23T11:01:03;7.80;88.60
35445;DHT22;21562;49.476;6.086;2024-02-23T11:03:30;7.90;96.40
35445;DHT22;21562;49.476;6.086;2024-02-23T11:05:56;7.60;99.90
35445;DHT22;21562;49.476;6.086;2024-02-23T11:08:22;7.60;99.90
35445;DHT22;21562;49.476;6.086;2024-02-23T11:10:51;7.80;99.90
35445;DHT22;21562;49.476;6.086;2024-02-23T11:13:36;7.90;99.90
35445;DHT22;21562;49.476;6.086;2024-02-23T11:16:05;7.90;99.90
35445;DHT22;21562;49.476;6.086;2024-02-23T11:18:33;8.00;96.70
35445;DHT22;21562;49.476;6.086;2024-02-23T11:21:00;8.30;77.60
35445;DHT22;21562;49.476;6.086;2024-02-23T11:23:27;8.20;73.90
35445;DHT22;21562;49.476;6.086;2024-02-23T11:26:06;8.20;80.30
35445;DHT22;21562;49.476;6.086;2024-02-23T11:28:50;8.00;62.10
35445;DHT22;21562;49.476;6.086;2024-02-23T11:31:20;7.90;98.60
35445;DHT22;21562;49.476;6.086;2024-02-23T11:33:52;8.00;86.60
35445;DHT22;21562;49.476;6.086;2024-02-23T11:36:28;8.30;51.10
35445;DHT22;21562;49.476;6.086;2024-02-23T11:38:56;8.40;27.90
35445;DHT22;21562;49.476;6.086;2024-02-23T11:41:26;8.30;53.10
35445;DHT22;21562;49.476;6.086;2024-02-23T11:43:53;8.20;42.10
35445;DHT22;21562;49.476;6.086;2024-02-23T11:46:19;8.10;56.50
35445;DHT22;21562;49.476;6.086;2024-02-23T11:48:46;7.90;68.90
35445;DHT22;21562;49.476;6.086;2024-02-23T11:51:15;8.20;89.60
35445;DHT22;21562;49.476;6.086;2024-02-23T11:53:41;8.50;46.40
35445;DHT22;21562;49.476;6.086;2024-02-23T11:56:07;9.00;29.20
35445;DHT22;21562;49.476;6.086;2024-02-23T11:58:33;9.20;10.50
35445;DHT22;21562;49.476;6.086;2024-02-23T12:01:00;9.60;1.00
35445;DHT22;21562;49.476;6.086;2024-02-23T12:03:31;9.60;1.00
35445;DHT22;21562;49.476;6.086;2024-02-23T12:06:03;9.20;1.00
35445;DHT22;21562;49.476;6.086;2024-02-23T12:08:30;8.40;63.30
35445;DHT22;21562;49.476;6.086;2024-02-23T12:11:06;8.50;99.90
35445;DHT22;21562;49.476;6.086;2024-02-23T12:13:34;8.80;92.10
35445;DHT22;21562;49.476;6.086;2024-02-23T12:16:00;8.80;94.40
35445;DHT22;21562;49.476;6.086;2024-02-23T12:18:26;8.80;66.80
35445;DHT22;21562;49.476;6.086;2024-02-23T12:20:53;8.90;56.10
35445;DHT22;21562;49.476;6.086;2024-02-23T12:23:19;9.10;38.60
35445;DHT22;21562;49.476;6.086;2024-02-23T12:25:57;9.20;21.80
35445;DHT22;21562;49.476;6.086;2024-02-23T12:28:24;9.60;1.00
35445;DHT22;21562;49.476;6.086;2024-02-23T12:31:03;9.90;1.00
35445;DHT22;21562;49.476;6.086;2024-02-23T12:33:31;9.90;1.00
35445;DHT22;21562;49.476;6.086;2024-02-23T12:35:58;9.80;1.00
35445;DHT22;21562;49.476;6.086;2024-02-23T12:38:25;9.50;1.00
35445;DHT22;21562;49.476;6.086;2024-02-23T12:40:51;9.70;1.00
35445;DHT22;21562;49.476;6.086;2024-02-23T12:43:17;9.20;1.00
35445;DHT22;21562;49.476;6.086;2024-02-23T12:45:43;9.30;1.00
35445;DHT22;21562;49.476;6.086;2024-02-23T12:48:17;9.40;1.00
35445;DHT22;21562;49.476;6.086;2024-02-23T12:50:44;9.30;1.00
35445;DHT22;21562;49.476;6.086;2024-02-23T12:55:59;8.90;1.00
35445;DHT22;21562;49.476;6.086;2024-02-23T12:58:25;9.20;1.00
35445;DHT22;21562;49.476;6.086;2024-02-23T13:00:51;9.50;1.00
35445;DHT22;21562;49.476;6.086;2024-02-23T13:03:17;9.20;1.00
35445;DHT22;21562;49.476;6.086;2024-02-23T13:05:43;9.00;1.00
35445;DHT22;21562;49.476;6.086;2024-02-23T13:08:08;9.00;1.00
35445;DHT22;21562;49.476;6.086;2024-02-23T13:10:34;8.60;1.00
35445;DHT22;21562;49.476;6.086;2024-02-23T13:13:00;8.50;1.00
35445;DHT22;21562;49.476;6.086;2024-02-23T13:15:26;8.60;1.00
35445;DHT22;21562;49.476;6.086;2024-02-23T13:17:52;8.70;1.00
35445;DHT22;21562;49.476;6.086;2024-02-23T13:20:18;9.00;1.00
35445;DHT22;21562;49.476;6.086;2024-02-23T13:22:43;9.10;1.00
35445;DHT22;21562;49.476;6.086;2024-02-23T13:25:09;9.10;1.00
35445;DHT22;21562;49.476;6.086;2024-02-23T13:27:35;8.90;1.00
35445;DHT22;21562;49.476;6.086;2024-02-23T13:30:03;9.10;1.00
35445;DHT22;21562;49.476;6.086;2024-02-23T13:32:29;9.40;1.00
35445;DHT22;21562;49.476;6.086;2024-02-23T13:34:55;9.40;1.00
35445;DHT22;21562;49.476;6.086;2024-02-23T13:37:20;9.40;1.00
35445;DHT22;21562;49.476;6.086;2024-02-23T13:39:46;9.40;1.00
35445;DHT22;21562;49.476;6.086;2024-02-23T13:42:12;9.70;1.00
35445;DHT22;21562;49.476;6.086;2024-02-23T13:44:38;10.00;1.00
35445;DHT22;21562;49.476;6.086;2024-02-23T13:47:04;10.30;1.00
35445;DHT22;21562;49.476;6.086;2024-02-23T13:49:29;10.50;1.00
35445;DHT22;21562;49.476;6.086;2024-02-23T13:51:55;10.30;1.00
35445;DHT22;21562;49.476;6.086;2024-02-23T13:54:21;9.90;1.00
35445;DHT22;21562;49.476;6.086;2024-02-23T13:56:47;9.90;1.00
35445;DHT22;21562;49.476;6.086;2024-02-23T13:59:13;10.20;1.00
35445;DHT22;21562;49.476;6.086;2024-02-23T14:01:38;10.30;1.00
35445;DHT22;21562;49.476;6.086;2024-02-23T14:04:06;10.40;1.00
35445;DHT22;21562;49.476;6.086;2024-02-23T14:06:32;10.70;1.00
35445;DHT22;21562;49.476;6.086;2024-02-23T14:08:58;11.20;99.90
35445;DHT22;21562;49.476;6.086;2024-02-23T14:11:24;10.90;1.00
35445;DHT22;21562;49.476;6.086;2024-02-23T14:13:50;11.10;19.50
35445;DHT22;21562;49.476;6.086;2024-02-23T14:16:16;11.60;99.90
35445;DHT22;21562;49.476;6.086;2024-02-23T14:18:42;11.10;99.90
35445;DHT22;21562;49.476;6.086;2024-02-23T14:21:10;10.90;1.00
35445;DHT22;21562;49.476;6.086;2024-02-23T14:23:36;10.30;1.00
35445;DHT22;21562;49.476;6.086;2024-02-23T14:26:05;10.50;99.90
35445;DHT22;21562;49.476;6.086;2024-02-23T14:28:31;10.70;99.90
35445;DHT22;21562;49.476;6.086;2024-02-23T14:30:57;10.70;99.90
35445;DHT22;21562;49.476;6.086;2024-02-23T14:33:23;10.60;4.90
35445;DHT22;21562;49.476;6.086;2024-02-23T14:35:48;10.50;99.90
35445;DHT22;21562;49.476;6.086;2024-02-23T14:38:15;10.50;1.00
35445;DHT22;21562;49.476;6.086;2024-02-23T14:40:42;10.40;1.00
35445;DHT22;21562;49.476;6.086;2024-02-23T14:43:08;10.10;11.80
35445;DHT22;21562;49.476;6.086;2024-02-23T14:45:35;10.10;99.90
35445;DHT22;21562;49.476;6.086;2024-02-23T14:48:01;9.90;99.90
35445;DHT22;21562;49.476;6.086;2024-02-23T14:50:27;10.00;99.90
35445;DHT22;21562;49.476;6.086;2024-02-23T14:52:53;9.90;99.90
35445;DHT22;21562;49.476;6.086;2024-02-23T14:55:19;9.90;99.90
35445;DHT22;21562;49.476;6.086;2024-02-23T14:57:45;9.40;1.00
35445;DHT22;21562;49.476;6.086;2024-02-23T15:00:11;9.10;1.00
35445;DHT22;21562;49.476;6.086;2024-02-23T15:02:38;9.00;1.00
35445;DHT22;21562;49.476;6.086;2024-02-23T15:05:05;9.10;1.00
35445;DHT22;21562;49.476;6.086;2024-02-23T15:07:32;9.10;1.00
35445;DHT22;21562;49.476;6.086;2024-02-23T15:09:58;9.50;1.00
35445;DHT22;21562;49.476;6.086;2024-02-23T15:12:25;9.80;1.00
35445;DHT22;21562;49.476;6.086;2024-02-23T15:14:53;10.40;1.00
35445;DHT22;21562;49.476;6.086;2024-02-23T15:17:19;11.00;1.00
35445;DHT22;21562;49.476;6.086;2024-02-23T15:19:45;10.90;1.00
35445;DHT22;21562;49.476;6.086;2024-02-23T15:22:11;11.20;1.00
35445;DHT22;21562;49.476;6.086;2024-02-23T15:24:40;11.90;99.90
35445;DHT22;21562;49.476;6.086;2024-02-23T15:27:11;11.60;99.90
35445;DHT22;21562;49.476;6.086;2024-02-23T15:29:37;11.50;99.90
35445;DHT22;21562;49.476;6.086;2024-02-23T15:32:02;11.10;1.00
35445;DHT22;21562;49.476;6.086;2024-02-23T15:34:29;11.30;99.90
35445;DHT22;21562;49.476;6.086;2024-02-23T15:36:54;10.90;99.90
35445;DHT22;21562;49.476;6.086;2024-02-23T15:39:20;10.70;1.00
35445;DHT22;21562;49.476;6.086;2024-02-23T15:41:46;10.60;1.00
35445;DHT22;21562;49.476;6.086;2024-02-23T15:44:12;10.60;1.00
35445;DHT22;21562;49.476;6.086;2024-02-23T15:46:37;10.70;1.00